Time,TemperatureF,DewpointF,PressureIn,WindDirection,WindDirectionDegrees,WindSpeedMPH,WindSpeedGustMPH,Humidity,HourlyPrecipIn,Conditions,Clouds,dailyrainin,SolarRadiationWatts/m^2,SoftwareType,DateUTC
2013-10-06 00:01:00,68.5,64.2,29.97,SSW,203,0.0,0.0,86,0.00,,CLR,0.00,0.00,VWS V14.01,2013-10-06 04:01:00,
2013-10-06 00:02:00,68.6,64.6,29.97,SSW,203,0.0,0.0,87,0.00,,CLR,0.00,0.00,VWS V14.01,2013-10-06 04:02:00,
2013-10-06 00:03:00,68.6,64.6,29.97,SSW,203,0.0,0.0,87,0.00,,CLR,0.00,0.00,VWS V14.01,2013-10-06 04:03:00,
2013-10-06 00:08:00,68.6,64.6,29.96,SSW,203,0.0,0.0,87,0.00,,CLR,0.00,0.00,VWS V14.01,2013-10-06 04:08:00,
2013-10-06 00:13:00,68.5,64.5,29.96,SSW,203,0.0,0.0,87,0.00,,CLR,0.00,0.00,VWS V14.01,2013-10-06 04:13:00,
2013-10-06 00:18:00,68.5,64.5,29.96,SSW,203,0.0,0.0,87,0.00,,CLR,0.00,0.00,VWS V14.01,2013-10-06 04:18:00,
2013-10-06 00:23:00,68.4,64.4,29.96,SSW,203,0.0,0.0,87,0.00,,CLR,0.00,0.00,VWS V14.01,2013-10-06 04:23:00,
2013-10-06 00:28:00,68.3,64.3,29.96,SSW,203,0.0,0.0,87,0.00,,CLR,0.00,0.00,VWS V14.01,2013-10-06 04:28:00,
2013-10-06 00:34:00,68.3,64.6,29.96,SSW,203,0.0,0.0,88,0.00,,CLR,0.00,0.00,VWS V14.01,2013-10-06 04:34:00,
2013-10-06 00:39:00,68.3,64.6,29.96,SSW,203,0.0,0.0,88,0.00,,CLR,0.00,0.00,VWS V14.01,2013-10-06 04:39:00,
2013-10-06 00:44:00,68.2,64.5,29.95,SSW,203,0.0,0.0,88,0.00,,CLR,0.00,0.00,VWS V14.01,2013-10-06 04:44:00,
2013-10-06 00:49:00,68.1,64.7,29.95,SSW,203,0.0,0.0,89,0.00,,CLR,0.00,0.00,VWS V14.01,2013-10-06 04:49:00,
2013-10-06 00:54:00,68.1,64.7,29.95,SSW,203,0.0,0.0,89,0.00,,CLR,0.00,0.00,VWS V14.01,2013-10-06 04:54:00,
2013-10-06 00:59:00,68.2,64.8,29.95,SSW,203,0.0,0.0,89,0.00,,CLR,0.00,0.00,VWS V14.01,2013-10-06 04:59:00,
2013-10-06 01:04:00,68.3,64.9,29.95,SSW,203,0.0,1.0,89,0.00,,CLR,0.00,0.00,VWS V14.01,2013-10-06 05:04:00,
2013-10-06 01:09:00,68.4,65.0,29.95,SSW,203,0.0,0.0,89,0.00,,CLR,0.00,0.00,VWS V14.01,2013-10-06 05:09:00,
2013-10-06 01:15:00,68.4,65.0,29.95,SSW,203,0.0,0.0,89,0.00,,CLR,0.00,0.00,VWS V14.01,2013-10-06 05:15:00,
2013-10-06 01:20:00,68.4,65.0,29.95,SSW,203,0.0,1.0,89,0.00,,CLR,0.00,0.00,VWS V14.01,2013-10-06 05:20:00,
2013-10-06 01:25:00,68.4,65.0,29.95,SSW,203,0.0,0.0,89,0.00,,CLR,0.00,0.00,VWS V14.01,2013-10-06 05:25:00,
2013-10-06 01:30:00,68.5,65.1,29.95,SSW,203,0.0,0.0,89,0.00,,CLR,0.00,0.00,VWS V14.01,2013-10-06 05:30:00,
2013-10-06 01:35:00,68.5,65.1,29.95,SSW,203,0.0,0.0,89,0.00,,CLR,0.00,0.00,VWS V14.01,2013-10-06 05:35:00,
2013-10-06 01:40:00,68.4,65.0,29.95,SSW,203,0.0,0.0,89,0.00,,CLR,0.00,0.00,VWS V14.01,2013-10-06 05:40:00,
2013-10-06 01:45:00,68.4,65.0,29.95,SSW,203,0.0,0.0,89,0.00,,CLR,0.00,0.00,VWS V14.01,2013-10-06 05:45:00,
2013-10-06 01:51:00,68.3,64.9,29.95,SSW,203,0.0,0.0,89,0.00,,CLR,0.00,0.00,VWS V14.01,2013-10-06 05:51:00,
2013-10-06 01:56:00,68.3,64.9,29.95,SSW,203,0.0,0.0,89,0.00,,CLR,0.00,0.00,VWS V14.01,2013-10-06 05:56:00,
2013-10-06 02:01:00,68.2,64.8,29.95,SSW,203,0.0,0.0,89,0.00,,CLR,0.00,0.00,VWS V14.01,2013-10-06 06:01:00,
2013-10-06 02:06:00,68.1,64.7,29.95,SSW,203,0.0,0.0,89,0.00,,CLR,0.00,0.00,VWS V14.01,2013-10-06 06:06:00,
2013-10-06 02:11:00,68.0,64.6,29.95,SSW,203,0.0,0.0,89,0.00,,CLR,0.00,0.00,VWS V14.01,2013-10-06 06:11:00,
2013-10-06 02:16:00,67.9,64.5,29.95,SSW,203,0.0,0.0,89,0.00,,CLR,0.00,0.00,VWS V14.01,2013-10-06 06:16:00,
2013-10-06 02:21:00,67.8,64.4,29.94,SSW,203,0.0,0.0,89,0.00,,CLR,0.00,0.00,VWS V14.01,2013-10-06 06:21:00,
2013-10-06 02:26:00,67.7,64.3,29.94,SSW,203,0.0,0.0,89,0.00,,CLR,0.00,0.00,VWS V14.01,2013-10-06 06:26:00,
2013-10-06 02:32:00,67.5,64.2,29.94,SSW,203,0.0,0.0,89,0.00,,CLR,0.00,0.00,VWS V14.01,2013-10-06 06:32:00,
2013-10-06 02:37:00,67.4,64.1,29.94,SSW,203,0.0,0.0,89,0.00,,CLR,0.00,0.00,VWS V14.01,2013-10-06 06:37:00,
2013-10-06 02:42:00,67.2,63.8,29.94,SSW,203,0.0,0.0,89,0.00,,CLR,0.00,0.00,VWS V14.01,2013-10-06 06:42:00,
2013-10-06 02:47:00,67.1,63.8,29.94,SSW,203,0.0,0.0,89,0.00,,CLR,0.00,0.00,VWS V14.01,2013-10-06 06:47:00,
2013-10-06 02:52:00,67.0,63.7,29.94,SSW,203,0.0,0.0,89,0.00,,CLR,0.00,0.00,VWS V14.01,2013-10-06 06:52:00,
2013-10-06 02:57:00,66.8,63.5,29.94,SSW,203,0.0,0.0,89,0.00,,CLR,0.00,0.00,VWS V14.01,2013-10-06 06:57:00,
2013-10-06 03:02:00,66.6,63.3,29.94,SSW,203,0.0,0.0,89,0.00,,CLR,0.00,0.00,VWS V14.01,2013-10-06 07:02:00,
2013-10-06 03:08:00,66.5,63.2,29.93,SSW,203,0.0,0.0,89,0.00,,CLR,0.00,0.00,VWS V14.01,2013-10-06 07:08:00,
2013-10-06 03:13:00,66.3,63.3,29.93,SSW,203,0.0,0.0,90,0.00,,CLR,0.00,0.00,VWS V14.01,2013-10-06 07:13:00,
2013-10-06 03:18:00,66.2,63.2,29.93,SSW,203,0.0,0.0,90,0.00,,CLR,0.00,0.00,VWS V14.01,2013-10-06 07:18:00,
2013-10-06 03:23:00,66.2,63.5,29.93,SSW,203,0.0,0.0,91,0.00,,CLR,0.00,0.00,VWS V14.01,2013-10-06 07:23:00,
2013-10-06 03:28:00,66.1,63.4,29.93,SSW,203,0.0,0.0,91,0.00,,CLR,0.00,0.00,VWS V14.01,2013-10-06 07:28:00,
2013-10-06 03:33:00,65.9,63.2,29.93,SSW,203,0.0,0.0,91,0.00,,CLR,0.00,0.00,VWS V14.01,2013-10-06 07:33:00,
2013-10-06 03:38:00,65.9,63.5,29.93,SSW,203,0.0,0.0,92,0.00,,CLR,0.00,0.00,VWS V14.01,2013-10-06 07:38:00,
2013-10-06 03:43:00,65.8,63.4,29.93,SSW,203,0.0,0.0,92,0.00,,CLR,0.00,0.00,VWS V14.01,2013-10-06 07:43:00,
2013-10-06 03:49:00,65.8,63.4,29.93,SSW,203,0.0,0.0,92,0.00,,CLR,0.00,0.00,VWS V14.01,2013-10-06 07:49:00,
2013-10-06 03:54:00,65.7,63.3,29.93,SSW,203,0.0,0.0,92,0.00,,CLR,0.00,0.00,VWS V14.01,2013-10-06 07:54:00,
2013-10-06 03:59:00,65.6,63.2,29.93,SSW,203,0.0,0.0,92,0.00,,CLR,0.00,0.00,VWS V14.01,2013-10-06 07:59:00,
2013-10-06 04:04:00,65.5,63.1,29.93,SSW,203,0.0,0.0,92,0.00,,CLR,0.00,0.00,VWS V14.01,2013-10-06 08:04:00,
2013-10-06 04:09:00,65.4,63.0,29.93,SSW,203,0.0,0.0,92,0.00,,CLR,0.00,0.00,VWS V14.01,2013-10-06 08:09:00,
2013-10-06 04:14:00,65.3,63.2,29.93,SSW,203,0.0,0.0,93,0.00,,CLR,0.00,0.00,VWS V14.01,2013-10-06 08:14:00,
2013-10-06 04:19:00,65.2,63.1,29.93,SSW,203,0.0,0.0,93,0.00,,CLR,0.00,0.00,VWS V14.01,2013-10-06 08:19:00,
2013-10-06 04:24:00,65.1,63.0,29.93,SSW,203,0.0,0.0,93,0.00,,CLR,0.00,0.00,VWS V14.01,2013-10-06 08:24:00,
2013-10-06 04:29:00,65.0,62.9,29.93,SSW,203,0.0,0.0,93,0.00,,CLR,0.00,0.00,VWS V14.01,2013-10-06 08:29:00,
2013-10-06 04:34:00,64.9,62.8,29.93,SSW,203,0.0,0.0,93,0.00,,CLR,0.00,0.00,VWS V14.01,2013-10-06 08:34:00,
2013-10-06 04:39:00,64.8,62.7,29.93,SSW,203,0.0,0.0,93,0.00,,CLR,0.00,0.00,VWS V14.01,2013-10-06 08:39:00,
2013-10-06 04:44:00,64.6,62.5,29.93,SSW,203,0.0,0.0,93,0.00,,CLR,0.00,0.00,VWS V14.01,2013-10-06 08:44:00,
2013-10-06 04:49:00,64.5,62.4,29.93,SSW,203,0.0,0.0,93,0.00,,CLR,0.00,0.00,VWS V14.01,2013-10-06 08:49:00,
2013-10-06 04:54:00,64.3,62.2,29.94,SSW,203,0.0,0.0,93,0.00,,CLR,0.00,0.00,VWS V14.01,2013-10-06 08:54:00,
2013-10-06 04:59:00,64.2,62.1,29.94,SSW,203,0.0,0.0,93,0.00,,CLR,0.00,0.00,VWS V14.01,2013-10-06 08:59:00,
2013-10-06 05:04:00,64.2,62.4,29.94,SSW,203,0.0,0.0,94,0.00,,CLR,0.00,0.00,VWS V14.01,2013-10-06 09:04:00,
2013-10-06 05:09:00,64.2,62.4,29.94,SSW,203,0.0,0.0,94,0.00,,CLR,0.00,0.00,VWS V14.01,2013-10-06 09:09:00,
2013-10-06 05:13:00,64.1,62.3,29.93,SSW,203,0.0,0.0,94,0.00,,CLR,0.00,0.00,VWS V14.01,2013-10-06 09:13:00,
2013-10-06 05:18:00,64.2,62.4,29.94,SSW,203,0.0,0.0,94,0.00,,CLR,0.00,0.00,VWS V14.01,2013-10-06 09:18:00,
2013-10-06 05:23:00,64.2,62.7,29.94,SSW,203,0.0,0.0,95,0.00,,CLR,0.00,0.00,VWS V14.01,2013-10-06 09:23:00,
2013-10-06 05:28:00,64.2,62.7,29.94,SSW,203,0.0,0.0,95,0.00,,CLR,0.00,0.00,VWS V14.01,2013-10-06 09:28:00,
2013-10-06 05:33:00,64.2,62.7,29.94,SSW,203,0.0,0.0,95,0.00,,CLR,0.00,0.00,VWS V14.01,2013-10-06 09:33:00,
2013-10-06 05:38:00,64.1,62.6,29.94,SSW,203,0.0,0.0,95,0.00,,CLR,0.00,0.00,VWS V14.01,2013-10-06 09:38:00,
2013-10-06 05:43:00,64.0,62.5,29.94,SSW,203,0.0,0.0,95,0.00,,CLR,0.00,0.00,VWS V14.01,2013-10-06 09:43:00,
2013-10-06 05:48:00,63.9,62.4,29.94,SSW,203,0.0,0.0,95,0.00,,CLR,0.00,0.00,VWS V14.01,2013-10-06 09:48:00,
2013-10-06 05:53:00,63.7,62.2,29.94,SSW,203,0.0,0.0,95,0.00,,CLR,0.00,0.00,VWS V14.01,2013-10-06 09:53:00,
2013-10-06 05:58:00,63.6,62.2,29.94,SSW,203,0.0,0.0,95,0.00,,CLR,0.00,0.00,VWS V14.01,2013-10-06 09:58:00,
2013-10-06 06:03:00,63.4,62.0,29.94,SSW,203,0.0,0.0,95,0.00,,CLR,0.00,0.00,VWS V14.01,2013-10-06 10:03:00,
2013-10-06 06:08:00,63.3,61.8,29.94,SSW,203,0.0,0.0,95,0.00,,CLR,0.00,0.00,VWS V14.01,2013-10-06 10:08:00,
2013-10-06 06:13:00,63.2,61.8,29.94,SSW,203,0.0,0.0,95,0.00,,CLR,0.00,0.00,VWS V14.01,2013-10-06 10:13:00,
2013-10-06 06:18:00,63.1,61.7,29.94,SSW,203,0.0,0.0,95,0.00,,CLR,0.00,0.00,VWS V14.01,2013-10-06 10:18:00,
2013-10-06 06:24:00,63.0,61.5,29.95,SSW,203,0.0,0.0,95,0.00,,CLR,0.00,0.00,VWS V14.01,2013-10-06 10:24:00,
2013-10-06 06:29:00,62.8,61.3,29.95,SSW,203,0.0,0.0,95,0.00,,CLR,0.00,0.00,VWS V14.01,2013-10-06 10:29:00,
2013-10-06 06:34:00,62.7,61.2,29.95,SSW,203,0.0,0.0,95,0.00,,CLR,0.00,0.00,VWS V14.01,2013-10-06 10:34:00,
2013-10-06 06:39:00,62.6,61.2,29.95,SSW,203,0.0,0.0,95,0.00,,CLR,0.00,0.00,VWS V14.01,2013-10-06 10:39:00,
2013-10-06 06:44:00,62.5,61.0,29.95,SSW,203,0.0,0.0,95,0.00,,CLR,0.00,0.00,VWS V14.01,2013-10-06 10:44:00,
2013-10-06 06:49:00,62.5,61.0,29.95,SSW,203,0.0,0.0,95,0.00,,CLR,0.00,0.00,VWS V14.01,2013-10-06 10:49:00,
2013-10-06 06:54:00,62.5,61.0,29.95,SSW,203,0.0,0.0,95,0.00,,CLR,0.00,0.00,VWS V14.01,2013-10-06 10:54:00,
2013-10-06 06:59:00,62.4,61.2,29.95,SSW,203,0.0,0.0,96,0.00,,CLR,0.00,0.00,VWS V14.01,2013-10-06 10:59:00,
2013-10-06 07:04:00,62.3,60.8,29.95,SSW,203,0.0,0.0,95,0.00,,CLR,0.00,0.00,VWS V14.01,2013-10-06 11:04:00,
2013-10-06 07:09:00,62.2,60.8,29.95,SSW,203,0.0,0.0,95,0.00,,CLR,0.00,0.00,VWS V14.01,2013-10-06 11:09:00,
2013-10-06 07:14:00,62.1,60.7,29.95,SSW,203,0.0,0.0,95,0.00,,CLR,0.00,7.00,VWS V14.01,2013-10-06 11:14:00,
2013-10-06 07:20:00,62.0,60.6,29.95,SSW,203,0.0,0.0,95,0.00,,CLR,0.00,11.00,VWS V14.01,2013-10-06 11:20:00,
2013-10-06 07:25:00,62.0,60.8,29.95,SSW,203,0.0,0.0,96,0.00,,CLR,0.00,16.00,VWS V14.01,2013-10-06 11:25:00,
2013-10-06 07:30:00,61.9,60.8,29.95,SSW,203,0.0,0.0,96,0.00,,CLR,0.00,21.00,VWS V14.01,2013-10-06 11:30:00,
2013-10-06 07:35:00,62.0,60.8,29.95,SSW,203,0.0,0.0,96,0.00,,CLR,0.00,26.00,VWS V14.01,2013-10-06 11:35:00,
2013-10-06 07:40:00,61.9,60.8,29.95,SSW,203,0.0,0.0,96,0.00,,CLR,0.00,35.00,VWS V14.01,2013-10-06 11:40:00,
2013-10-06 07:45:00,61.9,60.8,29.95,SSW,203,0.0,0.0,96,0.00,,CLR,0.00,44.00,VWS V14.01,2013-10-06 11:45:00,
2013-10-06 07:50:00,62.0,60.8,29.95,SSW,203,0.0,0.0,96,0.00,,CLR,0.00,53.00,VWS V14.01,2013-10-06 11:50:00,
2013-10-06 07:55:00,62.1,61.0,29.95,SSW,203,0.0,0.0,96,0.00,,CLR,0.00,63.00,VWS V14.01,2013-10-06 11:55:00,
2013-10-06 08:00:00,62.2,61.0,29.95,SSW,203,0.0,0.0,96,0.00,,CLR,0.00,62.00,VWS V14.01,2013-10-06 12:00:00,
2013-10-06 08:05:00,62.5,61.6,29.96,SSW,203,0.0,0.0,97,0.00,,CLR,0.00,63.00,VWS V14.01,2013-10-06 12:05:00,
2013-10-06 08:10:00,62.9,62.0,29.96,SSW,203,0.0,0.0,97,0.00,,CLR,0.00,76.00,VWS V14.01,2013-10-06 12:10:00,
2013-10-06 08:15:00,63.2,62.3,29.96,SSW,203,0.0,0.0,97,0.00,,CLR,0.00,70.00,VWS V14.01,2013-10-06 12:15:00,
2013-10-06 08:20:00,63.5,62.6,29.97,SSW,203,0.0,0.0,97,0.00,,CLR,0.00,67.00,VWS V14.01,2013-10-06 12:20:00,
2013-10-06 08:26:00,63.7,62.8,29.97,SSW,203,0.0,0.0,97,0.00,,CLR,0.00,81.00,VWS V14.01,2013-10-06 12:26:00,
2013-10-06 08:31:00,64.4,63.8,29.97,SSW,203,0.0,0.0,98,0.00,,CLR,0.00,127.00,VWS V14.01,2013-10-06 12:31:00,
2013-10-06 08:36:00,65.3,64.7,29.97,SSW,203,0.0,0.0,98,0.00,,CLR,0.00,169.00,VWS V14.01,2013-10-06 12:36:00,
2013-10-06 08:41:00,66.1,65.5,29.97,SSW,203,0.0,0.0,98,0.00,,CLR,0.00,178.00,VWS V14.01,2013-10-06 12:41:00,
2013-10-06 08:46:00,66.8,66.2,29.97,SSW,203,0.0,1.0,98,0.00,,CLR,0.00,185.00,VWS V14.01,2013-10-06 12:46:00,
2013-10-06 08:51:00,67.3,66.7,29.97,SSW,203,0.0,1.0,98,0.00,,CLR,0.00,179.00,VWS V14.01,2013-10-06 12:51:00,
2013-10-06 08:56:00,67.9,67.3,29.97,SSW,203,0.0,1.0,98,0.00,,CLR,0.00,176.00,VWS V14.01,2013-10-06 12:56:00,
2013-10-06 09:01:00,68.5,67.6,29.97,SSW,206,0.0,1.0,97,0.00,,CLR,0.00,181.00,VWS V14.01,2013-10-06 13:01:00,
2013-10-06 09:06:00,69.0,67.8,29.97,SSW,209,0.0,2.0,96,0.00,,CLR,0.00,186.00,VWS V14.01,2013-10-06 13:06:00,
2013-10-06 09:11:00,69.5,67.7,29.97,SSW,207,0.0,1.0,94,0.00,,CLR,0.00,200.00,VWS V14.01,2013-10-06 13:11:00,
2013-10-06 09:16:00,70.3,68.2,29.97,SSW,206,0.0,3.0,93,0.00,,CLR,0.00,213.00,VWS V14.01,2013-10-06 13:16:00,
2013-10-06 09:21:00,70.9,67.8,29.97,SSW,196,0.0,2.0,90,0.00,,CLR,0.00,230.00,VWS V14.01,2013-10-06 13:21:00,
2013-10-06 09:26:00,71.3,67.9,29.97,SSW,209,4.0,4.0,89,0.00,,CLR,0.00,272.00,VWS V14.01,2013-10-06 13:26:00,
2013-10-06 09:31:00,71.8,68.1,29.97,SSW,210,2.0,4.0,88,0.00,,CLR,0.00,299.00,VWS V14.01,2013-10-06 13:31:00,
2013-10-06 09:37:00,72.4,68.3,29.97,SSW,211,0.0,1.0,87,0.00,,CLR,0.00,297.00,VWS V14.01,2013-10-06 13:37:00,
2013-10-06 09:42:00,72.8,68.4,29.97,South,183,1.0,4.0,86,0.00,,CLR,0.00,267.00,VWS V14.01,2013-10-06 13:42:00,
2013-10-06 09:47:00,73.4,68.6,29.97,SE,146,0.0,1.0,85,0.00,,CLR,0.00,283.00,VWS V14.01,2013-10-06 13:47:00,
2013-10-06 09:52:00,73.6,68.5,29.97,SE,144,0.0,4.0,84,0.00,,CLR,0.00,323.00,VWS V14.01,2013-10-06 13:52:00,
2013-10-06 09:57:00,73.9,68.4,29.96,SSW,203,0.0,5.0,83,0.00,,CLR,0.00,369.00,VWS V14.01,2013-10-06 13:57:00,
2013-10-06 10:02:00,74.3,68.4,29.96,SW,221,3.0,5.0,82,0.00,,CLR,0.00,396.00,VWS V14.01,2013-10-06 14:02:00,
2013-10-06 10:07:00,75.0,69.1,29.96,SW,219,0.0,2.0,82,0.00,,CLR,0.00,383.00,VWS V14.01,2013-10-06 14:07:00,
2013-10-06 10:12:00,75.4,68.8,29.96,South,188,0.0,4.0,80,0.00,,CLR,0.00,306.00,VWS V14.01,2013-10-06 14:12:00,
2013-10-06 10:17:00,75.7,68.7,29.96,SSW,194,2.0,4.0,79,0.00,,CLR,0.00,350.00,VWS V14.01,2013-10-06 14:17:00,
2013-10-06 10:22:00,75.7,68.4,29.96,SSW,193,0.0,5.0,78,0.00,,CLR,0.00,355.00,VWS V14.01,2013-10-06 14:22:00,
2013-10-06 10:27:00,76.1,68.4,29.96,SE,145,0.0,5.0,77,0.00,,CLR,0.00,366.00,VWS V14.01,2013-10-06 14:27:00,
2013-10-06 10:32:00,76.4,68.3,29.96,SSW,199,3.0,5.0,76,0.00,,CLR,0.00,392.00,VWS V14.01,2013-10-06 14:32:00,
2013-10-06 10:37:00,76.8,68.3,29.96,South,177,0.0,2.0,75,0.00,,CLR,0.00,401.00,VWS V14.01,2013-10-06 14:37:00,
2013-10-06 10:43:00,77.3,68.4,29.96,SSE,152,2.0,6.0,74,0.00,,CLR,0.00,380.00,VWS V14.01,2013-10-06 14:43:00,
2013-10-06 10:48:00,77.6,68.7,29.96,South,188,1.0,6.0,74,0.00,,CLR,0.00,366.00,VWS V14.01,2013-10-06 14:48:00,
2013-10-06 10:53:00,77.8,68.9,29.95,SW,217,2.0,6.0,74,0.00,,CLR,0.00,350.00,VWS V14.01,2013-10-06 14:53:00,
2013-10-06 10:58:00,78.1,68.8,29.95,SSW,209,0.0,5.0,73,0.00,,CLR,0.00,374.00,VWS V14.01,2013-10-06 14:58:00,
2013-10-06 11:03:00,78.7,68.9,29.95,SE,142,0.0,4.0,72,0.00,,CLR,0.00,397.00,VWS V14.01,2013-10-06 15:03:00,
2013-10-06 11:08:00,79.3,69.1,29.95,SW,219,4.0,5.0,71,0.00,,CLR,0.00,441.00,VWS V14.01,2013-10-06 15:08:00,
2013-10-06 11:13:00,79.9,69.7,29.95,South,171,0.0,3.0,71,0.00,,CLR,0.00,464.00,VWS V14.01,2013-10-06 15:13:00,
2013-10-06 11:18:00,80.3,69.6,29.95,SSW,209,1.0,5.0,70,0.00,,CLR,0.00,487.00,VWS V14.01,2013-10-06 15:18:00,
2013-10-06 11:23:00,80.6,69.5,29.95,SW,232,0.0,7.0,69,0.00,,CLR,0.00,485.00,VWS V14.01,2013-10-06 15:23:00,
2013-10-06 11:28:00,80.9,69.4,29.94,South,185,0.0,7.0,68,0.00,,CLR,0.00,510.00,VWS V14.01,2013-10-06 15:28:00,
2013-10-06 11:33:00,81.3,69.7,29.94,South,180,1.0,6.0,68,0.00,,CLR,0.00,476.00,VWS V14.01,2013-10-06 15:33:00,
2013-10-06 11:39:00,81.3,69.3,29.94,SSW,198,0.0,6.0,67,0.00,,CLR,0.00,294.00,VWS V14.01,2013-10-06 15:39:00,
2013-10-06 11:44:00,81.6,70.0,29.94,SSW,202,0.0,5.0,68,0.00,,CLR,0.00,315.00,VWS V14.01,2013-10-06 15:44:00,
2013-10-06 11:49:00,81.9,69.9,29.94,SSW,193,1.0,6.0,67,0.00,,CLR,0.00,399.00,VWS V14.01,2013-10-06 15:49:00,
2013-10-06 11:54:00,82.1,70.5,29.93,SW,219,0.0,4.0,68,0.00,,CLR,0.00,487.00,VWS V14.01,2013-10-06 15:54:00,
2013-10-06 11:59:00,82.6,70.1,29.93,SW,218,1.0,6.0,66,0.00,,CLR,0.00,462.00,VWS V14.01,2013-10-06 15:59:00,
2013-10-06 12:04:00,83.0,70.9,29.93,SW,217,5.0,6.0,67,0.00,,CLR,0.00,462.00,VWS V14.01,2013-10-06 16:04:00,
2013-10-06 12:09:00,83.4,69.9,29.93,SSW,208,5.0,7.0,64,0.00,,CLR,0.00,517.00,VWS V14.01,2013-10-06 16:09:00,
2013-10-06 12:14:00,83.8,70.3,29.93,SSE,159,0.0,8.0,64,0.00,,CLR,0.00,519.00,VWS V14.01,2013-10-06 16:14:00,
2013-10-06 12:19:00,84.3,70.3,29.93,SSE,168,0.0,7.0,63,0.00,,CLR,0.00,517.00,VWS V14.01,2013-10-06 16:19:00,
2013-10-06 12:24:00,84.7,70.2,29.93,SSW,199,0.0,7.0,62,0.00,,CLR,0.00,504.00,VWS V14.01,2013-10-06 16:24:00,
2013-10-06 12:29:00,84.9,70.4,29.93,SSW,209,8.0,11.0,62,0.00,,CLR,0.00,471.00,VWS V14.01,2013-10-06 16:29:00,
2013-10-06 12:34:00,85.1,71.1,29.93,SE,138,4.0,10.0,63,0.00,,CLR,0.00,476.00,VWS V14.01,2013-10-06 16:34:00,
2013-10-06 12:39:00,85.3,69.8,29.92,South,175,0.0,1.0,60,0.00,,CLR,0.00,272.00,VWS V14.01,2013-10-06 16:39:00,
2013-10-06 12:44:00,85.1,70.2,29.92,SW,226,11.0,11.0,61,0.00,,CLR,0.00,202.00,VWS V14.01,2013-10-06 16:44:00,
2013-10-06 12:49:00,85.1,69.2,29.91,SSE,160,1.0,2.0,59,0.00,,CLR,0.00,192.00,VWS V14.01,2013-10-06 16:49:00,
2013-10-06 12:54:00,85.7,69.7,29.91,SW,236,1.0,3.0,59,0.00,,CLR,0.00,526.00,VWS V14.01,2013-10-06 16:54:00,
2013-10-06 12:59:00,86.5,68.4,29.90,South,173,2.0,8.0,55,0.00,,CLR,0.00,538.00,VWS V14.01,2013-10-06 16:59:00,
2013-10-06 13:04:00,86.6,68.5,29.91,SSE,152,11.0,15.0,55,0.00,,CLR,0.00,605.00,VWS V14.01,2013-10-06 17:04:00,
2013-10-06 13:09:00,86.6,68.0,29.90,SSW,195,13.0,14.0,54,0.00,,CLR,0.00,619.00,VWS V14.01,2013-10-06 17:09:00,
2013-10-06 13:14:00,86.5,68.4,29.90,SSW,207,7.0,10.0,55,0.00,,CLR,0.00,661.00,VWS V14.01,2013-10-06 17:14:00,
2013-10-06 13:19:00,86.4,67.8,29.90,South,188,12.0,12.0,54,0.00,,CLR,0.00,675.00,VWS V14.01,2013-10-06 17:19:00,
2013-10-06 13:25:00,86.4,67.8,29.90,SSE,152,3.0,12.0,54,0.00,,CLR,0.00,151.00,VWS V14.01,2013-10-06 17:25:00,
2013-10-06 13:30:00,86.5,67.9,29.90,South,187,4.0,6.0,54,0.00,,CLR,0.00,684.00,VWS V14.01,2013-10-06 17:30:00,
2013-10-06 13:35:00,87.3,67.5,29.89,SW,217,7.0,12.0,52,0.00,,CLR,0.00,666.00,VWS V14.01,2013-10-06 17:35:00,
2013-10-06 13:40:00,87.5,67.7,29.89,SW,233,4.0,12.0,52,0.00,,CLR,0.00,592.00,VWS V14.01,2013-10-06 17:40:00,
2013-10-06 13:45:00,87.2,66.9,29.88,South,182,8.0,11.0,51,0.00,,CLR,0.00,592.00,VWS V14.01,2013-10-06 17:45:00,
2013-10-06 13:50:00,87.4,67.1,29.88,SSW,202,8.0,11.0,51,0.00,,CLR,0.00,617.00,VWS V14.01,2013-10-06 17:50:00,
2013-10-06 13:55:00,87.4,67.1,29.88,South,171,3.0,17.0,51,0.00,,CLR,0.00,585.00,VWS V14.01,2013-10-06 17:55:00,
2013-10-06 14:00:00,87.3,67.5,29.88,SSW,213,7.0,13.0,52,0.00,,CLR,0.00,601.00,VWS V14.01,2013-10-06 18:00:00,
2013-10-06 14:05:00,87.2,67.4,29.88,SSW,192,9.0,12.0,52,0.00,,CLR,0.00,545.00,VWS V14.01,2013-10-06 18:05:00,
2013-10-06 14:11:00,86.8,67.1,29.88,South,180,1.0,11.0,52,0.00,,CLR,0.00,526.00,VWS V14.01,2013-10-06 18:11:00,
2013-10-06 14:16:00,86.8,68.2,29.87,SSE,155,0.0,5.0,54,0.00,,CLR,0.00,589.00,VWS V14.01,2013-10-06 18:16:00,
2013-10-06 14:21:00,87.5,67.7,29.86,South,171,5.0,8.0,52,0.00,,CLR,0.00,613.00,VWS V14.01,2013-10-06 18:21:00,
2013-10-06 14:26:00,87.8,68.0,29.86,SSE,150,5.0,8.0,52,0.00,,CLR,0.00,561.00,VWS V14.01,2013-10-06 18:26:00,
2013-10-06 14:31:00,88.1,67.1,29.86,South,182,6.0,9.0,50,0.00,,CLR,0.00,550.00,VWS V14.01,2013-10-06 18:31:00,
2013-10-06 14:36:00,87.9,66.9,29.86,SSE,161,10.0,14.0,50,0.00,,CLR,0.00,568.00,VWS V14.01,2013-10-06 18:36:00,
2013-10-06 14:41:00,87.8,67.4,29.86,SSE,150,8.0,11.0,51,0.00,,CLR,0.00,603.00,VWS V14.01,2013-10-06 18:41:00,
2013-10-06 14:46:00,88.1,67.7,29.86,SSW,198,9.0,15.0,51,0.00,,CLR,0.00,624.00,VWS V14.01,2013-10-06 18:46:00,
2013-10-06 14:52:00,88.4,66.8,29.86,South,183,6.0,13.0,49,0.00,,CLR,0.00,575.00,VWS V14.01,2013-10-06 18:52:00,
2013-10-06 14:57:00,88.3,66.7,29.86,SSW,207,7.0,14.0,49,0.00,,CLR,0.00,573.00,VWS V14.01,2013-10-06 18:57:00,
2013-10-06 15:02:00,88.2,66.7,29.85,SW,221,8.0,16.0,49,0.00,,CLR,0.00,540.00,VWS V14.01,2013-10-06 19:02:00,
2013-10-06 15:07:00,88.0,67.1,29.85,South,188,3.0,8.0,50,0.00,,CLR,0.00,524.00,VWS V14.01,2013-10-06 19:07:00,
2013-10-06 15:12:00,88.3,66.7,29.85,South,184,4.0,7.0,49,0.00,,CLR,0.00,536.00,VWS V14.01,2013-10-06 19:12:00,
2013-10-06 15:17:00,88.2,66.7,29.85,SSW,200,7.0,15.0,49,0.00,,CLR,0.00,527.00,VWS V14.01,2013-10-06 19:17:00,
2013-10-06 15:22:00,88.2,67.2,29.85,SW,217,7.0,12.0,50,0.00,,CLR,0.00,504.00,VWS V14.01,2013-10-06 19:22:00,
2013-10-06 15:27:00,88.1,66.6,29.85,SW,225,10.0,12.0,49,0.00,,CLR,0.00,494.00,VWS V14.01,2013-10-06 19:27:00,
2013-10-06 15:32:00,87.8,66.3,29.85,SSE,156,5.0,10.0,49,0.00,,CLR,0.00,483.00,VWS V14.01,2013-10-06 19:32:00,
2013-10-06 15:37:00,87.6,66.7,29.85,SSE,167,3.0,14.0,50,0.00,,CLR,0.00,489.00,VWS V14.01,2013-10-06 19:37:00,
2013-10-06 15:43:00,87.6,66.7,29.85,SW,219,6.0,10.0,50,0.00,,CLR,0.00,461.00,VWS V14.01,2013-10-06 19:43:00,
2013-10-06 15:48:00,87.6,66.7,29.85,SSE,152,0.0,16.0,50,0.00,,CLR,0.00,438.00,VWS V14.01,2013-10-06 19:48:00,
2013-10-06 15:53:00,87.6,67.2,29.85,SSW,210,13.0,13.0,51,0.00,,CLR,0.00,427.00,VWS V14.01,2013-10-06 19:53:00,
2013-10-06 15:58:00,87.3,66.4,29.85,South,184,11.0,15.0,50,0.00,,CLR,0.00,425.00,VWS V14.01,2013-10-06 19:58:00,
2013-10-06 16:03:00,87.1,66.8,29.85,South,172,4.0,16.0,51,0.00,,CLR,0.00,413.00,VWS V14.01,2013-10-06 20:03:00,
2013-10-06 16:08:00,87.1,66.8,29.84,SSW,196,6.0,13.0,51,0.00,,CLR,0.00,401.00,VWS V14.01,2013-10-06 20:08:00,
2013-10-06 16:13:00,86.9,66.6,29.84,SW,219,6.0,14.0,51,0.00,,CLR,0.00,390.00,VWS V14.01,2013-10-06 20:13:00,
2013-10-06 16:18:00,86.8,66.5,29.84,South,190,4.0,14.0,51,0.00,,CLR,0.00,359.00,VWS V14.01,2013-10-06 20:18:00,
2013-10-06 16:24:00,86.6,66.9,29.84,SSW,202,3.0,13.0,52,0.00,,CLR,0.00,364.00,VWS V14.01,2013-10-06 20:24:00,
2013-10-06 16:29:00,86.5,66.8,29.84,SSW,210,3.0,12.0,52,0.00,,CLR,0.00,352.00,VWS V14.01,2013-10-06 20:29:00,
2013-10-06 16:34:00,86.6,66.9,29.84,SSW,194,7.0,11.0,52,0.00,,CLR,0.00,345.00,VWS V14.01,2013-10-06 20:34:00,
2013-10-06 16:39:00,86.6,66.3,29.84,WSW,244,5.0,14.0,51,0.00,,CLR,0.00,327.00,VWS V14.01,2013-10-06 20:39:00,
2013-10-06 16:44:00,86.5,66.2,29.84,SW,215,7.0,13.0,51,0.00,,CLR,0.00,315.00,VWS V14.01,2013-10-06 20:44:00,
2013-10-06 16:49:00,86.2,65.4,29.84,South,182,12.0,17.0,50,0.00,,CLR,0.00,297.00,VWS V14.01,2013-10-06 20:49:00,
2013-10-06 16:54:00,85.9,65.7,29.84,South,188,10.0,17.0,51,0.00,,CLR,0.00,285.00,VWS V14.01,2013-10-06 20:54:00,
2013-10-06 16:59:00,85.6,66.5,29.84,SSW,198,3.0,14.0,53,0.00,,CLR,0.00,262.00,VWS V14.01,2013-10-06 20:59:00,
2013-10-06 17:04:00,85.5,65.9,29.84,South,171,4.0,8.0,52,0.00,,CLR,0.00,255.00,VWS V14.01,2013-10-06 21:04:00,
2013-10-06 17:09:00,85.2,66.2,29.84,SSE,153,3.0,7.0,53,0.00,,CLR,0.00,241.00,VWS V14.01,2013-10-06 21:09:00,
2013-10-06 17:15:00,85.0,66.5,29.84,ESE,121,5.0,5.0,54,0.00,,CLR,0.00,230.00,VWS V14.01,2013-10-06 21:15:00,
2013-10-06 17:20:00,84.8,65.8,29.84,South,183,2.0,7.0,53,0.00,,CLR,0.00,200.00,VWS V14.01,2013-10-06 21:20:00,
2013-10-06 17:25:00,84.6,66.1,29.84,South,171,0.0,3.0,54,0.00,,CLR,0.00,169.00,VWS V14.01,2013-10-06 21:25:00,
2013-10-06 17:30:00,84.4,65.9,29.84,SSW,209,4.0,9.0,54,0.00,,CLR,0.00,56.00,VWS V14.01,2013-10-06 21:30:00,
2013-10-06 17:35:00,84.0,65.6,29.84,SW,216,4.0,9.0,54,0.00,,CLR,0.00,58.00,VWS V14.01,2013-10-06 21:35:00,
2013-10-06 17:40:00,83.7,65.8,29.84,SSW,207,3.0,8.0,55,0.00,,CLR,0.00,56.00,VWS V14.01,2013-10-06 21:40:00,
2013-10-06 17:46:00,83.4,65.6,29.85,SE,144,3.0,4.0,55,0.00,,CLR,0.00,51.00,VWS V14.01,2013-10-06 21:46:00,
2013-10-06 17:51:00,83.2,65.4,29.84,SSW,202,3.0,11.0,55,0.00,,CLR,0.00,51.00,VWS V14.01,2013-10-06 21:51:00,
2013-10-06 17:56:00,83.0,65.2,29.85,South,175,4.0,6.0,55,0.00,,CLR,0.00,42.00,VWS V14.01,2013-10-06 21:56:00,
2013-10-06 18:01:00,82.8,65.5,29.85,South,180,0.0,13.0,56,0.00,,CLR,0.00,37.00,VWS V14.01,2013-10-06 22:01:00,
2013-10-06 18:06:00,82.6,65.3,29.85,SSW,195,1.0,11.0,56,0.00,,CLR,0.00,33.00,VWS V14.01,2013-10-06 22:06:00,
2013-10-06 18:11:00,82.4,65.7,29.85,South,178,1.0,8.0,57,0.00,,CLR,0.00,28.00,VWS V14.01,2013-10-06 22:11:00,
2013-10-06 18:16:00,82.1,65.4,29.85,SSE,162,1.0,7.0,57,0.00,,CLR,0.00,26.00,VWS V14.01,2013-10-06 22:16:00,
2013-10-06 18:21:00,81.9,65.7,29.86,SSE,157,0.0,8.0,58,0.00,,CLR,0.00,23.00,VWS V14.01,2013-10-06 22:21:00,
2013-10-06 18:27:00,81.6,65.9,29.85,SSE,159,6.0,7.0,59,0.00,,CLR,0.00,18.00,VWS V14.01,2013-10-06 22:27:00,
2013-10-06 18:32:00,81.3,66.1,29.86,SSE,156,0.0,4.0,60,0.00,,CLR,0.00,14.00,VWS V14.01,2013-10-06 22:32:00,
2013-10-06 18:37:00,81.0,65.8,29.86,SSW,192,2.0,7.0,60,0.00,,CLR,0.00,7.00,VWS V14.01,2013-10-06 22:37:00,
2013-10-06 18:42:00,80.7,66.0,29.85,South,184,1.0,6.0,61,0.00,,CLR,0.00,0.00,VWS V14.01,2013-10-06 22:42:00,
2013-10-06 18:47:00,80.4,65.7,29.86,South,184,0.0,3.0,61,0.00,,CLR,0.00,0.00,VWS V14.01,2013-10-06 22:47:00,
2013-10-06 18:52:00,80.2,66.0,29.86,South,184,0.0,2.0,62,0.00,,CLR,0.00,0.00,VWS V14.01,2013-10-06 22:52:00,
2013-10-06 18:57:00,79.8,66.1,29.86,SSW,198,3.0,5.0,63,0.00,,CLR,0.00,0.00,VWS V14.01,2013-10-06 22:57:00,
2013-10-06 19:03:00,79.5,65.8,29.86,SSE,158,0.0,6.0,63,0.00,,CLR,0.00,0.00,VWS V14.01,2013-10-06 23:03:00,
2013-10-06 19:08:00,79.3,66.1,29.86,SSW,196,1.0,4.0,64,0.00,,CLR,0.00,0.00,VWS V14.01,2013-10-06 23:08:00,
2013-10-06 19:13:00,79.0,65.8,29.86,South,180,0.0,7.0,64,0.00,,CLR,0.00,0.00,VWS V14.01,2013-10-06 23:13:00,
2013-10-06 19:18:00,78.8,65.6,29.85,SSW,192,3.0,7.0,64,0.00,,CLR,0.00,0.00,VWS V14.01,2013-10-06 23:18:00,
2013-10-06 19:23:00,78.7,66.0,29.85,SSE,160,0.0,11.0,65,0.00,,CLR,0.00,0.00,VWS V14.01,2013-10-06 23:23:00,
2013-10-06 19:28:00,78.7,66.0,29.85,South,190,2.0,3.0,65,0.00,,CLR,0.00,0.00,VWS V14.01,2013-10-06 23:28:00,
2013-10-06 19:33:00,78.7,66.0,29.85,SSE,167,9.0,9.0,65,0.00,,CLR,0.00,0.00,VWS V14.01,2013-10-06 23:33:00,
2013-10-06 19:39:00,78.6,65.9,29.85,SSE,156,0.0,4.0,65,0.00,,CLR,0.00,0.00,VWS V14.01,2013-10-06 23:39:00,
2013-10-06 19:44:00,78.5,65.8,29.85,SE,146,0.0,5.0,65,0.00,,CLR,0.00,0.00,VWS V14.01,2013-10-06 23:44:00,
2013-10-06 19:49:00,78.4,65.7,29.85,South,188,5.0,8.0,65,0.00,,CLR,0.00,0.00,VWS V14.01,2013-10-06 23:49:00,
2013-10-06 19:54:00,78.3,65.6,29.85,SSW,192,0.0,7.0,65,0.00,,CLR,0.00,0.00,VWS V14.01,2013-10-06 23:54:00,
2013-10-06 19:59:00,78.1,65.8,29.85,South,171,1.0,5.0,66,0.00,,CLR,0.00,0.00,VWS V14.01,2013-10-06 23:59:00,
2013-10-06 20:04:00,78.0,65.7,29.85,South,186,3.0,6.0,66,0.00,,CLR,0.00,0.00,VWS V14.01,2013-10-07 00:04:00,
2013-10-06 20:09:00,77.9,65.6,29.85,SSW,205,0.0,5.0,66,0.00,,CLR,0.00,0.00,VWS V14.01,2013-10-07 00:09:00,
2013-10-06 20:14:00,77.8,66.0,29.85,SSW,197,0.0,6.0,67,0.00,,CLR,0.00,0.00,VWS V14.01,2013-10-07 00:14:00,
2013-10-06 20:19:00,77.6,65.8,29.85,SSW,194,0.0,4.0,67,0.00,,CLR,0.00,0.00,VWS V14.01,2013-10-07 00:19:00,
2013-10-06 20:24:00,77.5,65.7,29.86,SSW,194,5.0,6.0,67,0.00,,CLR,0.00,0.00,VWS V14.01,2013-10-07 00:24:00,
2013-10-06 20:29:00,77.5,66.1,29.86,South,183,0.0,8.0,68,0.00,,CLR,0.00,0.00,VWS V14.01,2013-10-07 00:29:00,
2013-10-06 20:34:00,77.4,66.0,29.85,SSE,152,0.0,0.0,68,0.00,,CLR,0.00,0.00,VWS V14.01,2013-10-07 00:34:00,
2013-10-06 20:39:00,77.3,65.9,29.85,SSW,192,0.0,0.0,68,0.00,,CLR,0.00,0.00,VWS V14.01,2013-10-07 00:39:00,
2013-10-06 20:44:00,77.2,66.2,29.85,South,181,0.0,1.0,69,0.00,,CLR,0.00,0.00,VWS V14.01,2013-10-07 00:44:00,
2013-10-06 20:49:00,77.1,66.2,29.85,SSW,204,0.0,3.0,69,0.00,,CLR,0.00,0.00,VWS V14.01,2013-10-07 00:49:00,
2013-10-06 20:54:00,77.0,66.1,29.85,South,185,0.0,0.0,69,0.00,,CLR,0.00,0.00,VWS V14.01,2013-10-07 00:54:00,
2013-10-06 20:59:00,76.9,66.4,29.85,South,191,1.0,3.0,70,0.00,,CLR,0.00,0.00,VWS V14.01,2013-10-07 00:59:00,
2013-10-06 21:05:00,76.8,66.3,29.85,SSE,152,0.0,4.0,70,0.00,,CLR,0.00,0.00,VWS V14.01,2013-10-07 01:05:00,
2013-10-06 21:10:00,76.8,66.3,29.85,SSW,198,7.0,7.0,70,0.00,,CLR,0.00,0.00,VWS V14.01,2013-10-07 01:10:00,
2013-10-06 21:15:00,76.8,66.3,29.85,SE,144,5.0,9.0,70,0.00,,CLR,0.00,0.00,VWS V14.01,2013-10-07 01:15:00,
2013-10-06 21:20:00,76.9,66.4,29.85,SW,217,11.0,12.0,70,0.00,,CLR,0.00,0.00,VWS V14.01,2013-10-07 01:20:00,
2013-10-06 21:25:00,76.9,66.4,29.86,SSW,212,2.0,7.0,70,0.00,,CLR,0.00,0.00,VWS V14.01,2013-10-07 01:25:00,
2013-10-06 21:30:00,76.9,66.4,29.86,SSW,206,1.0,7.0,70,0.00,,CLR,0.00,0.00,VWS V14.01,2013-10-07 01:30:00,
2013-10-06 21:35:00,76.7,66.2,29.86,South,182,0.0,8.0,70,0.00,,CLR,0.00,0.00,VWS V14.01,2013-10-07 01:35:00,
2013-10-06 21:41:00,76.6,66.1,29.85,SW,214,8.0,8.0,70,0.00,,CLR,0.00,0.00,VWS V14.01,2013-10-07 01:41:00,
2013-10-06 21:46:00,76.6,66.1,29.85,SSW,194,3.0,8.0,70,0.00,,CLR,0.00,0.00,VWS V14.01,2013-10-07 01:46:00,
2013-10-06 21:51:00,76.5,66.0,29.85,SSW,213,4.0,10.0,70,0.00,,CLR,0.00,0.00,VWS V14.01,2013-10-07 01:51:00,
2013-10-06 21:56:00,76.5,66.4,29.85,South,188,8.0,9.0,71,0.00,,CLR,0.00,0.00,VWS V14.01,2013-10-07 01:56:00,
2013-10-06 22:01:00,76.4,66.3,29.85,SSE,159,2.0,10.0,71,0.00,,CLR,0.00,0.00,VWS V14.01,2013-10-07 02:01:00,
2013-10-06 22:06:00,76.2,66.1,29.85,SSE,165,3.0,10.0,71,0.00,,CLR,0.00,0.00,VWS V14.01,2013-10-07 02:06:00,
2013-10-06 22:12:00,76.0,65.9,29.85,SSW,194,0.0,4.0,71,0.00,,CLR,0.00,0.00,VWS V14.01,2013-10-07 02:12:00,
2013-10-06 22:17:00,75.9,65.8,29.85,SSW,192,2.0,9.0,71,0.00,,CLR,0.00,0.00,VWS V14.01,2013-10-07 02:17:00,
2013-10-06 22:22:00,75.8,65.7,29.85,SSW,195,5.0,9.0,71,0.00,,CLR,0.00,0.00,VWS V14.01,2013-10-07 02:22:00,
2013-10-06 22:27:00,75.6,65.9,29.85,SSE,163,1.0,7.0,72,0.00,,CLR,0.00,0.00,VWS V14.01,2013-10-07 02:27:00,
2013-10-06 22:32:00,75.5,65.8,29.85,SSW,196,1.0,4.0,72,0.00,,CLR,0.00,0.00,VWS V14.01,2013-10-07 02:32:00,
2013-10-06 22:37:00,75.4,65.8,29.85,SSW,200,0.0,13.0,72,0.00,,CLR,0.00,0.00,VWS V14.01,2013-10-07 02:37:00,
2013-10-06 22:42:00,75.3,66.1,29.85,South,186,0.0,7.0,73,0.00,,CLR,0.00,0.00,VWS V14.01,2013-10-07 02:42:00,
2013-10-06 22:47:00,75.3,66.1,29.85,SSW,196,5.0,8.0,73,0.00,,CLR,0.00,0.00,VWS V14.01,2013-10-07 02:47:00,
2013-10-06 22:53:00,75.3,66.1,29.84,South,175,1.0,13.0,73,0.00,,CLR,0.00,0.00,VWS V14.01,2013-10-07 02:53:00,
2013-10-06 22:58:00,75.2,66.3,29.85,SSE,162,0.0,9.0,74,0.00,,CLR,0.00,0.00,VWS V14.01,2013-10-07 02:58:00,
2013-10-06 23:03:00,75.1,66.2,29.84,SSE,165,2.0,10.0,74,0.00,,CLR,0.00,0.00,VWS V14.01,2013-10-07 03:03:00,
2013-10-06 23:08:00,74.9,66.1,29.85,SW,221,3.0,10.0,74,0.00,,CLR,0.00,0.00,VWS V14.01,2013-10-07 03:08:00,
2013-10-06 23:13:00,74.8,66.3,29.85,South,186,1.0,8.0,75,0.00,,CLR,0.00,0.00,VWS V14.01,2013-10-07 03:13:00,
2013-10-06 23:19:00,74.7,66.3,29.86,South,189,3.0,11.0,75,0.00,,CLR,0.00,0.00,VWS V14.01,2013-10-07 03:19:00,
2013-10-06 23:24:00,74.6,66.5,29.86,SSW,196,3.0,7.0,76,0.00,,CLR,0.00,0.00,VWS V14.01,2013-10-07 03:24:00,
2013-10-06 23:29:00,74.5,66.4,29.85,South,169,0.0,7.0,76,0.00,,CLR,0.00,0.00,VWS V14.01,2013-10-07 03:29:00,
2013-10-06 23:34:00,74.3,66.2,29.84,SSE,156,1.0,11.0,76,0.00,,CLR,0.00,0.00,VWS V14.01,2013-10-07 03:34:00,
2013-10-06 23:39:00,74.1,66.4,29.84,SSW,195,1.0,1.0,77,0.00,,CLR,0.00,0.00,VWS V14.01,2013-10-07 03:39:00,
2013-10-06 23:44:00,74.0,66.3,29.84,SSW,198,5.0,5.0,77,0.00,,CLR,0.00,0.00,VWS V14.01,2013-10-07 03:44:00,
2013-10-06 23:49:00,73.9,66.6,29.84,SSW,192,5.0,8.0,78,0.00,,CLR,0.00,0.00,VWS V14.01,2013-10-07 03:49:00,
2013-10-06 23:54:00,73.9,66.6,29.85,South,185,4.0,4.0,78,0.00,,CLR,0.00,0.00,VWS V14.01,2013-10-07 03:54:00,
2013-10-06 23:59:00,73.7,66.4,29.85,SSW,194,0.0,7.0,78,0.00,,CLR,0.00,0.00,VWS V14.01,2013-10-07 03:59:00,